TOQ weather

Barriles Airport
Tocopilla, Antofagasta Region, Chile

Public forecast

Using degrees Celsius for public forecast. Weather courtesy of forecast.io.

Closest aviation weather report (METAR) to Barriles Airport

Closest report is El Loa Airport, 67.9 nm (125.7 km) ESE. Retrieved 2020/06/05 03:00 UTC (2 minutes ago):

SCCF 050300Z 25012KT CAVOK 10/072 Q1026

Closest aviation forecast (TAF) to Barriles Airport

Closest forecast is El Loa Airport, 67.9 nm (125.7 km) ESE. Retrieved 2020-06-05 00:00 UTC (3 hours ago):

TAF COR SCCF 042359Z 0500/0524 24008KT CAVOK TNM02/0510Z TX22/0519Z BECMG 0511/0513 11010KT BECMG 0516/0518 29022KT BECMG 0523/0524 27012KT